»·PEaware :: N4765P KMSO-KGEG

N4765P :: KMSO-KGEG

FLIGHT INFORMATION

Flight Status: Arrived
Operator: Privately registered:
United States
More flights under this callsign
Pilot: Alex C. (14758)
Aircraft: AIRBUS A320
(A320)
More flights by this aircraft type
Origin: KMSO Missoula Intl
United States
Destination: KGEG Spokane Intl
United States
More flights between these airports :: More routes between these airports
Route: +DIDLY5 MLP HILIE2
File this flight plan on PilotEdge
Remarks:
Altitude:
(Current/Filed)
20,000ft
Speed:
(Current/Filed)
440kts
Departed: 29-Oct-18 06:07 PM
Arrived: 29-Oct-18 07:04 PM
Distance/Time
Traveled:
147nm/0:57
Distance/Time
To Go:
Arrived

Flight Plot

Page will automatically refresh every two minutes.

Flight plan parsing failed; only flown route is shown


Map Options




Map Legend


Flown Route
Filed Route
Departure Airport
Arrival Airport
Navaid (VOR, NDB)
Fix

Horizontal Profiles

Position Reports

Time Latitude Longitude Heading Altitude Ground
Speed
29-Oct-18 17:50 46.914520 -114.077453 358 3213ft 0kts
29-Oct-18 17:51 46.914520 -114.077453 358 3213ft 0kts
29-Oct-18 17:52 46.914520 -114.077453 358 3213ft 0kts
29-Oct-18 17:53 46.914520 -114.077453 358 3213ft 0kts
29-Oct-18 17:54 46.914520 -114.077453 358 3213ft 0kts
29-Oct-18 17:55 46.914520 -114.077453 358 3213ft 0kts
29-Oct-18 17:56 46.914520 -114.077453 358 3213ft 0kts
29-Oct-18 17:57 46.914520 -114.077453 358 3213ft 0kts
29-Oct-18 17:58 46.914520 -114.077453 358 3213ft 0kts
29-Oct-18 17:59 46.914520 -114.077453 358 3213ft 0kts
29-Oct-18 18:00 46.914520 -114.077453 358 3213ft 0kts
29-Oct-18 18:01 46.914520 -114.077453 358 3213ft 0kts
29-Oct-18 18:02 46.914520 -114.077453 358 3213ft 0kts
29-Oct-18 18:03 46.915266 -114.078262 278 3213ft 11kts
29-Oct-18 18:04 46.914032 -114.081164 187 3213ft 13kts
29-Oct-18 18:05 46.911611 -114.080246 132 3213ft 18kts
29-Oct-18 18:06 46.909245 -114.077191 180 3213ft 9kts
29-Oct-18 18:07 46.909091 -114.077192 180 3213ft 0kts
29-Oct-18 18:08 46.909091 -114.077192 180 3213ft 0kts
29-Oct-18 18:09 46.909090 -114.077192 180 3213ft 0kts
29-Oct-18 18:10 46.909069 -114.079584 310 3213ft 43kts
29-Oct-18 18:10 46.913164 -114.086351 309 3214ft 116kts
29-Oct-18 18:12 46.936354 -114.126732 312 3974ft 230kts
29-Oct-18 18:13 46.972532 -114.179104 311 6465ft 260kts
29-Oct-18 18:14 47.005252 -114.253748 311 9451ft 267kts
29-Oct-18 18:14 47.032523 -114.293400 312 11149ft 271kts
29-Oct-18 18:15 47.071145 -114.357120 308 13476ft 280kts
29-Oct-18 18:16 47.104085 -114.413102 309 14897ft 304kts
29-Oct-18 18:17 47.142587 -114.478282 309 15014ft 373kts
29-Oct-18 18:18 47.182826 -114.553725 294 17069ft 376kts
29-Oct-18 18:19 47.205643 -114.640617 291 18768ft 386kts
29-Oct-18 18:20 47.229524 -114.730877 289 20181ft 382kts
29-Oct-18 18:21 47.256399 -114.836501 289 20165ft 394kts
29-Oct-18 18:22 47.281260 -114.935219 289 20165ft 395kts
29-Oct-18 18:23 47.305491 -115.031936 289 20166ft 394kts
29-Oct-18 18:24 47.328076 -115.122469 290 20165ft 404kts
29-Oct-18 18:25 47.347946 -115.202409 290 20165ft 402kts
29-Oct-18 18:26 47.370405 -115.293104 290 20162ft 398kts
29-Oct-18 18:27 47.394370 -115.390281 290 20145ft 360kts
29-Oct-18 18:28 47.414272 -115.471302 290 19432ft 330kts
29-Oct-18 18:29 47.432294 -115.544937 290 18405ft 325kts
29-Oct-18 18:30 47.449610 -115.615911 290 17411ft 320kts
29-Oct-18 18:31 47.459251 -115.689125 275 16415ft 317kts
29-Oct-18 18:32 47.464162 -115.763191 276 15439ft 312kts
29-Oct-18 18:33 47.468893 -115.838474 276 14439ft 307kts
29-Oct-18 18:34 47.473499 -115.913325 276 13441ft 303kts
29-Oct-18 18:35 47.477956 -115.986794 276 12521ft 295kts
29-Oct-18 18:36 47.481819 -116.051250 276 12078ft 272kts
29-Oct-18 18:37 47.485623 -116.115241 276 11201ft 272kts
29-Oct-18 18:38 47.489407 -116.179512 276 10343ft 271kts
29-Oct-18 18:39 47.493368 -116.247461 276 10010ft 269kts
29-Oct-18 18:40 47.497343 -116.316290 276 10009ft 270kts
29-Oct-18 18:41 47.501409 -116.387529 276 10009ft 270kts
29-Oct-18 18:42 47.505356 -116.457460 276 10009ft 270kts
29-Oct-18 18:43 47.509029 -116.523233 276 10009ft 270kts
29-Oct-18 18:44 47.512756 -116.590679 276 10009ft 270kts
29-Oct-18 18:45 47.516386 -116.657282 276 9917ft 256kts
29-Oct-18 18:46 47.520338 -116.731894 276 8893ft 256kts
29-Oct-18 18:47 47.524239 -116.806524 276 7594ft 256kts
29-Oct-18 18:48 47.528222 -116.882405 276 7012ft 255kts
29-Oct-18 18:49 47.532136 -116.957775 275 7006ft 253kts
29-Oct-18 18:50 47.536023 -117.032550 275 7004ft 251kts
29-Oct-18 18:51 47.540337 -117.111206 279 6997ft 240kts
29-Oct-18 18:52 47.571560 -117.157740 324 7001ft 225kts
29-Oct-18 18:53 47.606040 -117.189241 326 6976ft 207kts
29-Oct-18 18:54 47.634315 -117.213568 326 6289ft 204kts
29-Oct-18 18:55 47.662680 -117.237962 326 6003ft 202kts
29-Oct-18 18:56 47.693472 -117.264489 326 6000ft 201kts
29-Oct-18 18:57 47.726793 -117.293624 326 6000ft 199kts
29-Oct-18 18:58 47.757751 -117.326312 298 5953ft 192kts
29-Oct-18 18:59 47.746885 -117.362143 200 5500ft 196kts
29-Oct-18 19:00 47.722270 -117.382660 227 4951ft 177kts
29-Oct-18 19:01 47.703311 -117.409681 227 4430ft 157kts
29-Oct-18 19:02 47.687065 -117.434028 227 3962ft 132kts
29-Oct-18 19:03 47.669132 -117.461101 226 3480ft 131kts
29-Oct-18 19:04 47.652236 -117.486613 226 3006ft 131kts
29-Oct-18 19:05 47.634822 -117.512868 225 2533ft 135kts
29-Oct-18 19:06 47.623143 -117.530554 235 2392ft 13kts
29-Oct-18 19:07 47.620334 -117.535662 252 2392ft 43kts
29-Oct-18 19:08 47.621332 -117.537214 38 2392ft 23kts
29-Oct-18 19:09 47.623173 -117.539780 345 2392ft 6kts
29-Oct-18 19:10 47.623360 -117.539805 358 2392ft 0kts
29-Oct-18 19:11 47.623360 -117.539805 358 2392ft 0kts
29-Oct-18 19:12 47.623360 -117.539805 358 2392ft 0kts
29-Oct-18 19:13 47.623360 -117.539805 358 2392ft 0kts
29-Oct-18 19:14 47.623360 -117.539805 358 2392ft 0kts

Navigation Log

Ident Type
Flight plan parsing failed, navigation log unavailable